createdAt,value
2023-03-05T00:01:16.377Z,2.53
2023-03-05T00:03:43.054Z,1.83
2023-03-05T00:06:10.199Z,1.85
2023-03-05T00:08:37.388Z,2.08
2023-03-05T00:11:06.743Z,2.10
2023-03-05T00:13:34.323Z,2.05
2023-03-05T00:16:04.371Z,1.80
2023-03-05T00:18:30.891Z,2.40
2023-03-05T00:20:57.569Z,2.25
2023-03-05T00:23:24.013Z,1.35
2023-03-05T00:25:50.530Z,2.13
2023-03-05T00:28:17.156Z,1.50
2023-03-05T00:30:43.705Z,1.73
2023-03-05T00:33:12.958Z,1.95
2023-03-05T00:35:44.936Z,1.85
2023-03-05T00:38:12.688Z,1.50
2023-03-05T00:40:41.180Z,1.75
2023-03-05T00:43:09.099Z,2.08
2023-03-05T00:45:35.753Z,2.05
2023-03-05T00:48:03.365Z,1.92
2023-03-05T00:50:29.842Z,2.60
2023-03-05T00:52:56.328Z,1.88
2023-03-05T00:55:22.908Z,1.38
2023-03-05T00:57:49.405Z,1.63
2023-03-05T01:00:17.264Z,1.60
2023-03-05T01:02:43.742Z,2.08
2023-03-05T01:05:15.257Z,1.92
2023-03-05T01:07:41.912Z,1.85
2023-03-05T01:10:09.629Z,1.92
2023-03-05T01:12:37.341Z,5.03
2023-03-05T01:15:05.806Z,1.45
2023-03-05T01:17:32.492Z,1.38
2023-03-05T01:19:58.979Z,2.17
2023-03-05T01:22:25.447Z,2.85
2023-03-05T01:24:51.995Z,1.83
2023-03-05T01:27:18.606Z,1.85
2023-03-05T01:29:45.060Z,2.00
2023-03-05T01:32:11.702Z,1.95
2023-03-05T01:34:38.251Z,1.77
2023-03-05T01:37:05.251Z,1.40
2023-03-05T01:39:31.707Z,1.48
2023-03-05T01:41:58.190Z,2.85
2023-03-05T01:44:30.334Z,1.77
2023-03-05T01:46:57.006Z,1.75
2023-03-05T01:49:38.577Z,2.45
2023-03-05T01:52:17.615Z,2.08
2023-03-05T01:54:50.868Z,1.45
2023-03-05T01:57:24.803Z,1.65
2023-03-05T01:59:56.342Z,2.22
2023-03-05T02:02:22.900Z,2.42
2023-03-05T02:05:03.141Z,1.77
2023-03-05T02:07:31.592Z,1.73
2023-03-05T02:09:58.105Z,2.25
2023-03-05T02:12:24.694Z,1.63
2023-03-05T02:14:59.643Z,2.08
2023-03-05T02:19:56.723Z,1.40
2023-03-05T02:22:24.715Z,1.70
2023-03-05T02:24:51.984Z,1.60
2023-03-05T02:27:22.669Z,1.58
2023-03-05T02:29:50.178Z,1.40
2023-03-05T02:32:16.788Z,1.15
2023-03-05T02:34:43.410Z,1.25
2023-03-05T02:37:10.631Z,1.83
2023-03-05T02:39:38.228Z,1.55
2023-03-05T02:42:04.760Z,2.22
2023-03-05T02:44:31.538Z,2.35
2023-03-05T02:46:58.092Z,1.23
2023-03-05T02:49:25.144Z,1.50
2023-03-05T02:51:51.685Z,1.52
2023-03-05T02:54:18.291Z,2.13
2023-03-05T02:56:44.799Z,1.27
2023-03-05T02:59:11.407Z,2.45
2023-03-05T03:01:38.237Z,2.13
2023-03-05T03:04:04.997Z,1.77
2023-03-05T03:06:31.507Z,1.90
2023-03-05T03:08:58.024Z,2.33
2023-03-05T03:11:24.619Z,1.48
2023-03-05T03:13:51.080Z,1.50
2023-03-05T03:16:17.847Z,2.17
2023-03-05T03:18:47.360Z,2.05
2023-03-05T03:21:23.110Z,1.67
2023-03-05T03:23:49.714Z,1.98
2023-03-05T03:26:17.245Z,2.30
2023-03-05T03:28:43.734Z,1.42
2023-03-05T03:31:10.368Z,1.65
2023-03-05T03:33:36.910Z,1.52
2023-03-05T03:36:04.639Z,1.33
2023-03-05T03:38:31.686Z,1.92
2023-03-05T03:40:58.220Z,2.10
2023-03-05T03:43:24.778Z,1.83
2023-03-05T03:45:51.468Z,1.60
2023-03-05T03:48:18.104Z,1.77
2023-03-05T03:50:44.968Z,2.58
2023-03-05T03:53:14.325Z,1.63
2023-03-05T03:55:46.523Z,1.17
2023-03-05T03:58:13.513Z,1.33
2023-03-05T04:00:41.635Z,1.48
2023-03-05T04:03:08.654Z,1.77
2023-03-05T04:05:35.197Z,2.05
2023-03-05T04:08:01.650Z,1.48
2023-03-05T04:10:28.111Z,1.20
2023-03-05T04:12:54.636Z,1.88
2023-03-05T04:15:21.248Z,0.98
2023-03-05T04:17:47.707Z,1.15
2023-03-05T04:20:14.160Z,2.10
2023-03-05T04:22:40.703Z,2.08
2023-03-05T04:25:08.402Z,2.15
2023-03-05T04:27:36.008Z,1.42
2023-03-05T04:30:02.463Z,1.73
2023-03-05T04:32:29.893Z,1.33
2023-03-05T04:34:57.277Z,1.67
2023-03-05T04:37:25.417Z,1.83
2023-03-05T04:39:52.961Z,1.92
2023-03-05T04:42:21.016Z,1.10
2023-03-05T04:44:49.163Z,1.27
2023-03-05T04:47:16.450Z,1.80
2023-03-05T04:49:43.292Z,3.13
2023-03-05T04:52:12.020Z,0.93
2023-03-05T04:54:38.801Z,2.50
2023-03-05T04:57:06.046Z,1.90
2023-03-05T04:59:32.610Z,1.40
2023-03-05T05:01:59.260Z,1.40
2023-03-05T05:04:25.733Z,1.05
2023-03-05T05:06:56.072Z,1.90
2023-03-05T05:09:23.030Z,1.65
2023-03-05T05:11:49.632Z,1.27
2023-03-05T05:14:16.471Z,1.27
2023-03-05T05:16:42.925Z,1.52
2023-03-05T05:19:09.615Z,2.35
2023-03-05T05:21:36.113Z,1.05
2023-03-05T05:24:02.619Z,1.70
2023-03-05T05:26:29.105Z,1.88
2023-03-05T05:28:55.604Z,1.60
2023-03-05T05:31:22.132Z,0.73
2023-03-05T05:33:49.934Z,1.98
2023-03-05T05:36:19.140Z,0.90
2023-03-05T05:38:45.939Z,1.10
2023-03-05T05:41:15.228Z,1.25
2023-03-05T05:43:42.238Z,2.13
2023-03-05T05:46:12.370Z,1.20
2023-03-05T05:48:39.155Z,1.10
2023-03-05T05:51:07.990Z,1.98
2023-03-05T05:53:34.708Z,1.23
2023-03-05T05:56:03.449Z,1.73
2023-03-05T05:58:30.011Z,1.52
2023-03-05T06:00:56.568Z,1.67
2023-03-05T06:03:23.090Z,0.93
2023-03-05T06:05:49.622Z,3.28
2023-03-05T06:08:16.167Z,1.27
2023-03-05T06:10:42.742Z,1.42
2023-03-05T06:13:09.254Z,2.45
2023-03-05T06:15:35.765Z,1.33
2023-03-05T06:18:02.880Z,0.70
2023-03-05T06:20:29.393Z,1.05
2023-03-05T06:22:55.973Z,2.30
2023-03-05T06:25:22.550Z,2.53
2023-03-05T06:27:49.100Z,2.38
2023-03-05T06:30:15.744Z,2.15
2023-03-05T06:32:42.205Z,2.97
2023-03-05T06:35:09.106Z,2.10
2023-03-05T06:37:35.632Z,2.40
2023-03-05T06:40:02.098Z,1.13
2023-03-05T06:42:28.571Z,1.27
2023-03-05T06:44:55.029Z,1.05
2023-03-05T06:47:21.513Z,1.60
2023-03-05T06:49:47.985Z,7.00
2023-03-05T06:52:14.565Z,0.73
2023-03-05T06:54:41.017Z,2.92
2023-03-05T06:57:07.483Z,5.65
2023-03-05T06:59:33.971Z,1.65
2023-03-05T07:02:00.557Z,2.65
2023-03-05T07:04:27.173Z,1.50
2023-03-05T07:06:53.701Z,3.30
2023-03-05T07:09:20.207Z,1.88
2023-03-05T07:11:46.663Z,3.10
2023-03-05T07:14:13.187Z,4.38
2023-03-05T07:16:39.665Z,3.70
2023-03-05T07:19:07.835Z,2.67
2023-03-05T07:21:36.905Z,3.17
2023-03-05T07:24:05.706Z,3.58
2023-03-05T07:26:33.603Z,5.13
2023-03-05T07:29:01.399Z,2.88
2023-03-05T07:31:31.054Z,4.03
2023-03-05T07:33:59.234Z,4.57
2023-03-05T07:36:26.885Z,6.25
2023-03-05T07:38:53.704Z,1.92
2023-03-05T07:41:23.582Z,3.40
2023-03-05T07:43:53.158Z,3.53
2023-03-05T07:46:22.705Z,1.38
2023-03-05T07:48:49.657Z,7.35
2023-03-05T07:51:19.933Z,4.53
2023-03-05T07:53:48.555Z,2.33
2023-03-05T07:56:21.935Z,3.60
2023-03-05T07:58:48.400Z,4.07
2023-03-05T08:01:14.959Z,2.17
2023-03-05T08:03:43.220Z,2.53
2023-03-05T08:06:11.771Z,3.13
2023-03-05T08:08:39.019Z,3.50
2023-03-05T08:11:07.353Z,3.40
2023-03-05T08:13:33.838Z,2.55
2023-03-05T08:16:04.963Z,1.75
2023-03-05T08:18:31.462Z,2.75
2023-03-05T08:20:58.076Z,2.53
2023-03-05T08:23:24.561Z,1.75
2023-03-05T08:25:51.047Z,1.27
2023-03-05T08:28:19.646Z,1.52
2023-03-05T08:30:47.658Z,2.17
2023-03-05T08:33:15.301Z,3.67
2023-03-05T08:35:41.801Z,1.67
2023-03-05T08:38:08.262Z,2.47
2023-03-05T08:40:34.753Z,1.63
2023-03-05T08:43:01.230Z,2.03
2023-03-05T08:45:28.547Z,1.55
2023-03-05T08:47:57.209Z,1.48
2023-03-05T08:50:24.443Z,1.73
2023-03-05T08:52:51.044Z,2.45
2023-03-05T08:55:17.786Z,1.77
2023-03-05T08:57:44.210Z,1.08
2023-03-05T09:00:12.536Z,1.27
2023-03-05T09:02:39.990Z,1.30
2023-03-05T09:05:07.040Z,2.05
2023-03-05T09:07:33.534Z,1.27
2023-03-05T09:10:00.003Z,1.70
2023-03-05T09:12:26.565Z,2.55
2023-03-05T09:14:55.012Z,2.28
2023-03-05T09:17:21.751Z,1.08
2023-03-05T09:19:48.258Z,2.47
2023-03-05T09:22:15.206Z,1.02
2023-03-05T09:24:43.358Z,1.08
2023-03-05T09:27:09.906Z,1.88
2023-03-05T09:29:36.343Z,2.40
2023-03-05T09:32:03.104Z,1.50
2023-03-05T09:34:29.750Z,2.03
2023-03-05T09:36:56.371Z,1.42
2023-03-05T09:39:22.796Z,0.60
2023-03-05T09:42:10.158Z,0.88
2023-03-05T09:44:57.006Z,1.27
2023-03-05T09:48:05.044Z,1.05
2023-03-05T09:50:48.280Z,1.95
2023-03-05T09:53:14.689Z,0.93
2023-03-05T09:56:04.659Z,0.85
2023-03-05T09:58:56.414Z,1.35
2023-03-05T10:01:32.020Z,1.58
2023-03-05T10:04:19.074Z,2.70
2023-03-05T10:07:16.599Z,1.42
2023-03-05T10:09:49.533Z,1.23
2023-03-05T10:12:42.613Z,1.75
2023-03-05T10:15:32.122Z,0.60
2023-03-05T10:18:16.751Z,1.77
2023-03-05T10:20:50.194Z,0.80
2023-03-05T10:23:31.559Z,1.58
2023-03-05T10:26:10.792Z,1.25
2023-03-05T10:28:52.391Z,1.42
2023-03-05T10:31:28.362Z,1.70
2023-03-05T10:34:12.313Z,2.00
2023-03-05T10:36:59.866Z,0.90
2023-03-05T10:39:49.927Z,1.42
2023-03-05T10:42:33.387Z,0.80
2023-03-05T10:45:06.254Z,1.20
2023-03-05T10:47:45.410Z,0.63
2023-03-05T10:50:38.094Z,0.60
2023-03-05T10:53:19.568Z,1.00
2023-03-05T10:55:46.049Z,0.88
2023-03-05T10:58:15.008Z,1.00
2023-03-05T11:01:18.902Z,0.77
2023-03-05T11:03:47.025Z,0.90
2023-03-05T11:06:14.388Z,0.70
2023-03-05T11:08:41.261Z,1.05
2023-03-05T11:11:18.294Z,0.50
2023-03-05T11:13:55.739Z,1.30
2023-03-05T11:16:24.265Z,1.23
2023-03-05T11:18:53.680Z,0.90
2023-03-05T11:21:27.453Z,2.47
2023-03-05T11:24:26.195Z,0.98
2023-03-05T11:26:55.241Z,2.80
2023-03-05T11:29:27.410Z,0.85
2023-03-05T11:31:54.652Z,1.48
2023-03-05T11:34:26.103Z,1.92
2023-03-05T11:36:58.556Z,2.70
2023-03-05T11:39:26.097Z,1.92
2023-03-05T11:41:57.871Z,2.72
2023-03-05T11:44:27.508Z,5.38
2023-03-05T11:46:59.566Z,1.92
2023-03-05T11:49:28.923Z,3.95
2023-03-05T11:52:00.209Z,2.25
2023-03-05T11:54:33.497Z,3.70
2023-03-05T11:57:02.397Z,3.97
2023-03-05T11:59:35.243Z,4.00
2023-03-05T12:02:01.789Z,4.00
2023-03-05T12:04:32.154Z,4.75
2023-03-05T12:07:01.659Z,4.03
2023-03-05T12:09:43.433Z,5.88
2023-03-05T12:12:24.660Z,2.30
2023-03-05T12:15:20.907Z,3.58
2023-03-05T12:17:58.714Z,7.35
2023-03-05T12:20:49.004Z,4.70
2023-03-05T12:23:18.968Z,4.45
2023-03-05T12:25:51.422Z,4.57
2023-03-05T12:28:45.884Z,2.83
2023-03-05T12:31:27.614Z,4.65
2023-03-05T12:33:54.169Z,3.47
2023-03-05T12:36:20.594Z,8.18
2023-03-05T12:38:57.516Z,5.78
2023-03-05T12:41:25.769Z,4.47
2023-03-05T12:44:20.346Z,4.00
2023-03-05T12:47:17.767Z,3.65
2023-03-05T12:49:46.188Z,5.47
2023-03-05T12:52:23.572Z,5.07
2023-03-05T12:55:14.884Z,9.85
2023-03-05T12:57:44.764Z,5.13
2023-03-05T13:00:22.409Z,5.03
2023-03-05T13:02:56.134Z,3.55
2023-03-05T13:05:36.937Z,4.47
2023-03-05T13:08:16.060Z,5.25
2023-03-05T13:10:43.610Z,4.38
2023-03-05T13:13:15.895Z,2.22
2023-03-05T13:15:47.209Z,2.88
2023-03-05T13:18:25.966Z,4.45
2023-03-05T13:21:06.905Z,3.45
2023-03-05T13:23:35.126Z,3.63
2023-03-05T13:26:19.141Z,2.47
2023-03-05T13:29:17.408Z,2.20
2023-03-05T13:31:50.363Z,3.03
2023-03-05T13:34:46.674Z,2.20
2023-03-05T13:37:20.709Z,3.10
2023-03-05T13:39:54.819Z,3.22
2023-03-05T13:42:34.543Z,2.40
2023-03-05T13:45:07.851Z,2.75
2023-03-05T13:47:35.764Z,3.10
2023-03-05T13:50:06.458Z,3.38
2023-03-05T13:52:36.010Z,2.53
2023-03-05T13:55:05.345Z,1.48
2023-03-05T13:57:36.862Z,2.40
2023-03-05T14:00:06.559Z,2.45
2023-03-05T14:02:33.622Z,1.88
2023-03-05T14:05:00.575Z,1.23
2023-03-05T14:07:41.475Z,1.45
2023-03-05T14:10:36.059Z,1.77
2023-03-05T14:13:13.235Z,1.80
2023-03-05T14:15:40.497Z,2.92
2023-03-05T14:18:13.021Z,2.13
2023-03-05T14:20:41.245Z,1.63
2023-03-05T14:23:34.646Z,1.48
2023-03-05T14:26:19.915Z,2.28
2023-03-05T14:28:55.688Z,1.83
2023-03-05T14:31:24.178Z,1.83
2023-03-05T14:33:52.010Z,2.33
2023-03-05T14:36:24.812Z,1.30
2023-03-05T14:38:53.581Z,0.98
2023-03-05T14:41:39.675Z,1.17
2023-03-05T14:44:14.906Z,4.03
2023-03-05T14:46:42.824Z,1.08
2023-03-05T14:49:09.586Z,1.83
2023-03-05T14:51:41.164Z,1.00
2023-03-05T14:54:17.339Z,2.55
2023-03-05T14:56:43.877Z,0.90
2023-03-05T14:59:10.369Z,1.60
2023-03-05T15:01:36.860Z,0.52
2023-03-05T15:04:03.574Z,1.90
2023-03-05T15:06:33.254Z,1.63
2023-03-05T15:09:01.461Z,2.00
2023-03-05T15:11:27.972Z,1.30
2023-03-05T15:13:54.427Z,2.00
2023-03-05T15:16:21.792Z,1.30
2023-03-05T15:18:48.496Z,1.05
2023-03-05T15:21:15.813Z,0.90
2023-03-05T15:23:44.135Z,0.93
2023-03-05T15:26:14.451Z,0.82
2023-03-05T15:28:41.550Z,0.80
2023-03-05T15:31:08.356Z,1.02
2023-03-05T15:33:34.974Z,0.90
2023-03-05T15:36:01.466Z,0.93
2023-03-05T15:38:27.971Z,1.65
2023-03-05T15:40:54.522Z,0.90
2023-03-05T15:43:21.086Z,0.55
2023-03-05T15:45:48.144Z,1.38
2023-03-05T15:48:14.702Z,0.82
2023-03-05T15:50:43.426Z,1.17
2023-03-05T15:53:12.720Z,0.52
2023-03-05T15:55:40.547Z,0.95
2023-03-05T15:58:07.465Z,0.47
2023-03-05T16:00:37.016Z,0.60
2023-03-05T16:03:04.357Z,1.15
2023-03-05T16:05:31.226Z,1.55
2023-03-05T16:07:58.965Z,0.98
2023-03-05T16:10:28.076Z,1.23
2023-03-05T16:13:01.060Z,0.73
2023-03-05T16:15:28.072Z,1.10
2023-03-05T16:17:56.152Z,1.65
2023-03-05T16:20:22.960Z,0.65
2023-03-05T16:22:49.903Z,0.70
2023-03-05T16:25:16.776Z,1.00
2023-03-05T16:27:43.274Z,0.70
2023-03-05T16:30:10.934Z,1.25
2023-03-05T16:32:38.582Z,0.50
2023-03-05T16:35:05.706Z,0.63
2023-03-05T16:37:32.305Z,1.02
2023-03-05T16:39:59.432Z,1.13
2023-03-05T16:42:26.023Z,0.82
2023-03-05T16:44:52.530Z,0.95
2023-03-05T16:47:19.056Z,1.05
2023-03-05T16:49:45.633Z,0.70
2023-03-05T16:52:18.758Z,0.70
2023-03-05T16:54:46.958Z,0.50
2023-03-05T16:57:13.766Z,1.00
2023-03-05T16:59:40.354Z,1.13
2023-03-05T17:02:06.911Z,1.48
2023-03-05T17:04:33.454Z,2.08
2023-03-05T17:06:59.864Z,0.93
2023-03-05T17:09:26.344Z,1.13
2023-03-05T17:11:54.433Z,0.70
2023-03-05T17:14:21.433Z,0.63
2023-03-05T17:16:48.083Z,0.68
2023-03-05T17:19:14.855Z,1.08
2023-03-05T17:21:42.550Z,1.02
2023-03-05T17:24:10.325Z,1.00
2023-03-05T17:26:37.153Z,1.50
2023-03-05T17:29:05.318Z,1.55
2023-03-05T17:31:32.215Z,1.35
2023-03-05T17:33:58.758Z,0.60
2023-03-05T17:36:25.837Z,0.60
2023-03-05T17:38:53.231Z,1.88
2023-03-05T17:41:21.029Z,1.63
2023-03-05T17:43:47.565Z,1.90
2023-03-05T17:46:14.921Z,0.90
2023-03-05T17:48:41.660Z,2.45
2023-03-05T17:51:10.435Z,1.00
2023-03-05T17:53:39.343Z,1.85
2023-03-05T17:56:10.659Z,0.85
2023-03-05T17:58:37.915Z,1.02
2023-03-05T18:01:05.592Z,1.08
2023-03-05T18:03:32.241Z,1.08
2023-03-05T18:05:58.716Z,0.93
2023-03-05T18:08:25.339Z,1.30
2023-03-05T18:10:51.902Z,1.75
2023-03-05T18:13:18.343Z,1.02
2023-03-05T18:15:47.639Z,0.63
2023-03-05T18:18:15.967Z,0.75
2023-03-05T18:20:42.741Z,0.70
2023-03-05T18:23:09.923Z,2.15
2023-03-05T18:25:36.530Z,0.82
2023-03-05T18:28:11.516Z,0.45
2023-03-05T18:30:40.481Z,1.77
2023-03-05T18:33:08.082Z,1.60
2023-03-05T18:35:34.855Z,1.83
2023-03-05T18:38:01.688Z,0.55
2023-03-05T18:40:32.454Z,0.43
2023-03-05T18:43:00.866Z,0.50
2023-03-05T18:45:28.264Z,0.70
2023-03-05T18:47:56.625Z,0.88
2023-03-05T18:50:25.661Z,1.48
2023-03-05T18:52:52.273Z,0.70
2023-03-05T18:55:21.972Z,0.70
2023-03-05T18:57:49.256Z,0.70
2023-03-05T19:00:19.209Z,1.05
2023-03-05T19:02:45.774Z,1.75
2023-03-05T19:05:14.724Z,0.70
2023-03-05T19:07:41.569Z,0.63
2023-03-05T19:10:09.981Z,0.70
2023-03-05T19:12:45.392Z,1.65
2023-03-05T19:15:13.355Z,0.55
2023-03-05T19:17:40.685Z,0.77
2023-03-05T19:20:10.244Z,0.30
2023-03-05T19:22:36.736Z,0.95
2023-03-05T19:25:03.531Z,1.35
2023-03-05T19:27:30.064Z,0.98
2023-03-05T19:29:56.797Z,0.60
2023-03-05T19:32:23.958Z,0.40
2023-03-05T19:34:50.735Z,0.60
2023-03-05T19:37:18.195Z,0.47
2023-03-05T19:39:44.715Z,1.23
2023-03-05T19:42:11.538Z,1.08
2023-03-05T19:44:38.740Z,0.90
2023-03-05T19:47:06.131Z,0.88
2023-03-05T19:49:33.030Z,0.82
2023-03-05T19:51:59.518Z,0.85
2023-03-05T19:54:26.473Z,1.13
2023-03-05T19:56:54.926Z,1.02
2023-03-05T19:59:22.365Z,0.63
2023-03-05T20:01:49.700Z,1.90
2023-03-05T20:04:22.383Z,1.90
2023-03-05T20:06:48.984Z,0.40
2023-03-05T20:09:16.242Z,0.80
2023-03-05T20:11:42.914Z,1.98
2023-03-05T20:14:10.019Z,0.40
2023-03-05T20:16:40.095Z,1.60
2023-03-05T20:19:10.143Z,0.30
2023-03-05T20:21:40.540Z,0.40
2023-03-05T20:24:10.352Z,1.30
2023-03-05T20:26:38.127Z,0.80
2023-03-05T20:29:04.929Z,0.70
2023-03-05T20:31:36.864Z,0.55
2023-03-05T20:34:06.081Z,0.98
2023-03-05T20:36:34.576Z,0.88
2023-03-05T20:39:03.152Z,1.10
2023-03-05T20:41:30.346Z,0.45
2023-03-05T20:43:56.903Z,2.45
2023-03-05T20:46:28.958Z,2.35
2023-03-05T20:48:59.021Z,1.00
2023-03-05T20:51:36.790Z,0.90
2023-03-05T20:54:10.004Z,2.83
2023-03-05T20:56:36.989Z,0.68
2023-03-05T20:59:06.157Z,1.67
2023-03-05T21:01:34.496Z,0.70
2023-03-05T21:04:01.898Z,1.20
2023-03-05T21:06:30.209Z,1.00
2023-03-05T21:08:57.203Z,0.43
2023-03-05T21:11:23.978Z,0.95
2023-03-05T21:13:50.847Z,1.73
2023-03-05T21:16:23.121Z,0.38
2023-03-05T21:18:51.049Z,0.88
2023-03-05T21:21:17.871Z,0.60
2023-03-05T21:23:44.368Z,0.90
2023-03-05T21:26:11.711Z,0.68
2023-03-05T21:28:40.268Z,0.30
2023-03-05T21:31:10.632Z,0.70
2023-03-05T21:33:37.493Z,0.90
2023-03-05T21:36:04.529Z,1.13
2023-03-05T21:38:33.858Z,0.20
2023-03-05T21:41:01.347Z,0.52
2023-03-05T21:43:28.502Z,0.50
2023-03-05T21:45:57.125Z,0.80
2023-03-05T21:48:24.885Z,0.52
2023-03-05T21:50:52.641Z,2.33
2023-03-05T21:53:19.707Z,0.70
2023-03-05T21:56:02.602Z,0.50
2023-03-05T21:58:34.458Z,0.98
2023-03-05T22:01:01.053Z,1.20
2023-03-05T22:03:28.400Z,0.77
2023-03-05T22:05:55.736Z,0.43
2023-03-05T22:08:22.995Z,2.00
2023-03-05T22:10:49.866Z,0.65
2023-03-05T22:13:17.738Z,0.50
2023-03-05T22:15:50.803Z,1.48
2023-03-05T22:18:21.985Z,0.60
2023-03-05T22:20:48.733Z,0.77
2023-03-05T22:23:16.543Z,0.95
2023-03-05T22:25:43.943Z,1.27
2023-03-05T22:28:13.591Z,2.00
2023-03-05T22:30:44.974Z,1.13
2023-03-05T22:33:12.218Z,1.23
2023-03-05T22:35:40.798Z,0.82
2023-03-05T22:38:11.489Z,1.20
2023-03-05T22:40:42.224Z,0.85
2023-03-05T22:43:08.923Z,0.93
2023-03-05T22:45:35.853Z,0.88
2023-03-05T22:48:02.682Z,2.10
2023-03-05T22:50:29.251Z,1.23
2023-03-05T22:52:55.875Z,2.42
2023-03-05T22:55:22.479Z,1.20
2023-03-05T22:57:49.021Z,1.20
2023-03-05T23:00:23.440Z,1.02
2023-03-05T23:02:51.268Z,1.33
2023-03-05T23:05:18.075Z,0.77
2023-03-05T23:07:45.707Z,0.57
2023-03-05T23:10:21.733Z,0.45
2023-03-05T23:12:51.204Z,0.63
2023-03-05T23:15:26.986Z,1.45
2023-03-05T23:17:54.041Z,0.70
2023-03-05T23:20:23.792Z,0.85
2023-03-05T23:22:52.962Z,1.20
2023-03-05T23:25:20.587Z,1.38
2023-03-05T23:27:47.625Z,0.63
2023-03-05T23:30:21.624Z,0.63
2023-03-05T23:32:57.395Z,2.35
2023-03-05T23:35:30.855Z,0.70
2023-03-05T23:37:59.631Z,0.82
2023-03-05T23:40:34.925Z,1.90
2023-03-05T23:43:01.551Z,1.42
2023-03-05T23:45:28.708Z,1.02
2023-03-05T23:47:55.685Z,0.75
2023-03-05T23:50:25.592Z,0.57
2023-03-05T23:52:54.342Z,0.73
2023-03-05T23:55:26.413Z,1.70
2023-03-05T23:57:53.008Z,0.82
